sensor_id;sensor_type;location;lat;lon;timestamp;P1;durP1;ratioP1;P2;durP2;ratioP2
12296;SDS011;6211;49.124;9.152;2023-06-14T00:00:10;3.45;;;2.65;;
12296;SDS011;6211;49.124;9.152;2023-06-14T00:02:38;3.35;;;3.03;;
12296;SDS011;6211;49.124;9.152;2023-06-14T00:05:06;3.42;;;2.60;;
12296;SDS011;6211;49.124;9.152;2023-06-14T00:07:33;4.78;;;2.53;;
12296;SDS011;6211;49.124;9.152;2023-06-14T00:10:01;4.45;;;3.10;;
12296;SDS011;6211;49.124;9.152;2023-06-14T00:12:29;5.03;;;2.53;;
12296;SDS011;6211;49.124;9.152;2023-06-14T00:14:56;2.95;;;2.70;;
12296;SDS011;6211;49.124;9.152;2023-06-14T00:17:25;6.20;;;2.70;;
12296;SDS011;6211;49.124;9.152;2023-06-14T00:19:55;2.80;;;2.60;;
12296;SDS011;6211;49.124;9.152;2023-06-14T00:22:22;4.15;;;2.97;;
12296;SDS011;6211;49.124;9.152;2023-06-14T00:24:50;3.78;;;2.70;;
12296;SDS011;6211;49.124;9.152;2023-06-14T00:27:17;3.10;;;2.63;;
12296;SDS011;6211;49.124;9.152;2023-06-14T00:29:44;3.78;;;2.70;;
12296;SDS011;6211;49.124;9.152;2023-06-14T00:32:11;4.18;;;3.03;;
12296;SDS011;6211;49.124;9.152;2023-06-14T00:34:40;3.00;;;2.70;;
12296;SDS011;6211;49.124;9.152;2023-06-14T00:37:07;5.63;;;2.95;;
12296;SDS011;6211;49.124;9.152;2023-06-14T00:39:34;3.08;;;2.63;;
12296;SDS011;6211;49.124;9.152;2023-06-14T00:42:01;2.58;;;2.38;;
12296;SDS011;6211;49.124;9.152;2023-06-14T00:44:29;3.70;;;2.83;;
12296;SDS011;6211;49.124;9.152;2023-06-14T00:46:56;4.90;;;2.85;;
12296;SDS011;6211;49.124;9.152;2023-06-14T00:49:23;3.95;;;2.47;;
12296;SDS011;6211;49.124;9.152;2023-06-14T00:51:51;4.03;;;2.53;;
12296;SDS011;6211;49.124;9.152;2023-06-14T00:54:19;3.13;;;2.58;;
12296;SDS011;6211;49.124;9.152;2023-06-14T00:56:46;4.32;;;2.47;;
12296;SDS011;6211;49.124;9.152;2023-06-14T00:59:13;3.05;;;2.25;;
12296;SDS011;6211;49.124;9.152;2023-06-14T01:01:40;4.40;;;3.03;;
12296;SDS011;6211;49.124;9.152;2023-06-14T01:04:07;3.25;;;2.92;;
12296;SDS011;6211;49.124;9.152;2023-06-14T01:06:36;2.58;;;2.33;;
12296;SDS011;6211;49.124;9.152;2023-06-14T01:09:12;3.47;;;2.50;;
12296;SDS011;6211;49.124;9.152;2023-06-14T01:11:45;2.78;;;2.50;;
12296;SDS011;6211;49.124;9.152;2023-06-14T01:14:14;4.00;;;2.95;;
12296;SDS011;6211;49.124;9.152;2023-06-14T01:16:43;3.85;;;2.85;;
12296;SDS011;6211;49.124;9.152;2023-06-14T01:19:11;6.80;;;2.70;;
12296;SDS011;6211;49.124;9.152;2023-06-14T01:21:38;3.03;;;2.72;;
12296;SDS011;6211;49.124;9.152;2023-06-14T01:24:08;4.03;;;2.60;;
12296;SDS011;6211;49.124;9.152;2023-06-14T01:26:36;2.80;;;2.50;;
12296;SDS011;6211;49.124;9.152;2023-06-14T01:29:03;3.92;;;3.22;;
12296;SDS011;6211;49.124;9.152;2023-06-14T01:31:32;4.53;;;3.38;;
12296;SDS011;6211;49.124;9.152;2023-06-14T01:34:06;3.47;;;2.67;;
12296;SDS011;6211;49.124;9.152;2023-06-14T01:36:33;3.42;;;2.30;;
12296;SDS011;6211;49.124;9.152;2023-06-14T01:39:02;3.97;;;2.97;;
12296;SDS011;6211;49.124;9.152;2023-06-14T01:41:32;3.15;;;2.75;;
12296;SDS011;6211;49.124;9.152;2023-06-14T01:43:59;6.75;;;2.92;;
12296;SDS011;6211;49.124;9.152;2023-06-14T01:46:27;4.18;;;2.58;;
12296;SDS011;6211;49.124;9.152;2023-06-14T01:48:54;4.53;;;2.75;;
12296;SDS011;6211;49.124;9.152;2023-06-14T01:51:21;4.57;;;2.45;;
12296;SDS011;6211;49.124;9.152;2023-06-14T01:53:48;5.53;;;2.88;;
12296;SDS011;6211;49.124;9.152;2023-06-14T01:56:16;2.63;;;2.42;;
12296;SDS011;6211;49.124;9.152;2023-06-14T01:58:44;3.72;;;2.97;;
12296;SDS011;6211;49.124;9.152;2023-06-14T02:01:11;3.65;;;3.05;;
12296;SDS011;6211;49.124;9.152;2023-06-14T02:03:41;4.20;;;3.20;;
12296;SDS011;6211;49.124;9.152;2023-06-14T02:06:09;3.92;;;2.92;;
12296;SDS011;6211;49.124;9.152;2023-06-14T02:08:37;3.42;;;2.75;;
12296;SDS011;6211;49.124;9.152;2023-06-14T02:11:05;3.42;;;2.92;;
12296;SDS011;6211;49.124;9.152;2023-06-14T02:13:32;4.55;;;3.40;;
12296;SDS011;6211;49.124;9.152;2023-06-14T02:16:00;3.55;;;2.97;;
12296;SDS011;6211;49.124;9.152;2023-06-14T02:18:27;3.70;;;2.70;;
12296;SDS011;6211;49.124;9.152;2023-06-14T02:20:55;3.72;;;3.10;;
12296;SDS011;6211;49.124;9.152;2023-06-14T02:23:22;4.28;;;3.05;;
12296;SDS011;6211;49.124;9.152;2023-06-14T02:25:49;3.38;;;2.95;;
12296;SDS011;6211;49.124;9.152;2023-06-14T02:28:16;4.75;;;3.30;;
12296;SDS011;6211;49.124;9.152;2023-06-14T02:30:43;3.13;;;2.80;;
12296;SDS011;6211;49.124;9.152;2023-06-14T02:33:12;3.95;;;3.03;;
12296;SDS011;6211;49.124;9.152;2023-06-14T02:35:39;4.57;;;3.40;;
12296;SDS011;6211;49.124;9.152;2023-06-14T02:38:06;3.92;;;3.28;;
12296;SDS011;6211;49.124;9.152;2023-06-14T02:40:33;4.70;;;3.22;;
12296;SDS011;6211;49.124;9.152;2023-06-14T02:43:00;4.47;;;3.58;;
12296;SDS011;6211;49.124;9.152;2023-06-14T02:45:27;4.43;;;3.30;;
12296;SDS011;6211;49.124;9.152;2023-06-14T02:47:55;3.88;;;3.33;;
12296;SDS011;6211;49.124;9.152;2023-06-14T02:50:23;7.38;;;3.67;;
12296;SDS011;6211;49.124;9.152;2023-06-14T02:52:51;3.75;;;3.30;;
12296;SDS011;6211;49.124;9.152;2023-06-14T02:55:20;4.50;;;3.47;;
12296;SDS011;6211;49.124;9.152;2023-06-14T02:57:48;5.65;;;3.78;;
12296;SDS011;6211;49.124;9.152;2023-06-14T03:00:15;3.50;;;3.20;;
12296;SDS011;6211;49.124;9.152;2023-06-14T03:02:42;3.95;;;3.00;;
12296;SDS011;6211;49.124;9.152;2023-06-14T03:05:09;4.20;;;3.58;;
12296;SDS011;6211;49.124;9.152;2023-06-14T03:07:39;4.70;;;3.45;;
12296;SDS011;6211;49.124;9.152;2023-06-14T03:10:10;3.92;;;3.40;;
12296;SDS011;6211;49.124;9.152;2023-06-14T03:12:38;4.93;;;3.28;;
12296;SDS011;6211;49.124;9.152;2023-06-14T03:15:05;3.88;;;3.25;;
12296;SDS011;6211;49.124;9.152;2023-06-14T03:17:32;4.65;;;3.35;;
12296;SDS011;6211;49.124;9.152;2023-06-14T03:20:00;4.50;;;3.50;;
12296;SDS011;6211;49.124;9.152;2023-06-14T03:22:28;5.18;;;3.42;;
12296;SDS011;6211;49.124;9.152;2023-06-14T03:24:57;4.90;;;3.63;;
12296;SDS011;6211;49.124;9.152;2023-06-14T03:27:24;4.75;;;3.33;;
12296;SDS011;6211;49.124;9.152;2023-06-14T03:29:53;3.58;;;3.20;;
12296;SDS011;6211;49.124;9.152;2023-06-14T03:32:20;4.20;;;3.80;;
12296;SDS011;6211;49.124;9.152;2023-06-14T03:34:47;5.18;;;3.88;;
12296;SDS011;6211;49.124;9.152;2023-06-14T03:37:16;7.38;;;3.75;;
12296;SDS011;6211;49.124;9.152;2023-06-14T03:39:43;5.30;;;3.60;;
12296;SDS011;6211;49.124;9.152;2023-06-14T03:42:13;4.13;;;3.72;;
12296;SDS011;6211;49.124;9.152;2023-06-14T03:44:40;4.50;;;3.30;;
12296;SDS011;6211;49.124;9.152;2023-06-14T03:47:07;6.82;;;3.42;;
12296;SDS011;6211;49.124;9.152;2023-06-14T03:49:35;3.72;;;3.40;;
12296;SDS011;6211;49.124;9.152;2023-06-14T03:52:03;4.43;;;3.40;;
12296;SDS011;6211;49.124;9.152;2023-06-14T03:54:30;5.80;;;3.72;;
12296;SDS011;6211;49.124;9.152;2023-06-14T03:56:57;5.43;;;3.75;;
12296;SDS011;6211;49.124;9.152;2023-06-14T03:59:26;4.25;;;3.20;;
12296;SDS011;6211;49.124;9.152;2023-06-14T04:01:53;3.67;;;3.38;;
12296;SDS011;6211;49.124;9.152;2023-06-14T04:04:21;4.45;;;3.65;;
12296;SDS011;6211;49.124;9.152;2023-06-14T04:06:53;3.47;;;3.17;;
12296;SDS011;6211;49.124;9.152;2023-06-14T04:09:21;4.13;;;3.40;;
12296;SDS011;6211;49.124;9.152;2023-06-14T04:11:49;4.40;;;3.88;;
12296;SDS011;6211;49.124;9.152;2023-06-14T04:14:16;4.63;;;3.47;;
12296;SDS011;6211;49.124;9.152;2023-06-14T04:16:45;4.10;;;3.70;;
12296;SDS011;6211;49.124;9.152;2023-06-14T04:19:12;5.38;;;4.18;;
12296;SDS011;6211;49.124;9.152;2023-06-14T04:21:39;5.00;;;3.85;;
12296;SDS011;6211;49.124;9.152;2023-06-14T04:24:06;3.75;;;3.42;;
12296;SDS011;6211;49.124;9.152;2023-06-14T04:26:39;5.78;;;3.92;;
12296;SDS011;6211;49.124;9.152;2023-06-14T04:29:06;4.32;;;3.70;;
12296;SDS011;6211;49.124;9.152;2023-06-14T04:31:33;4.30;;;3.83;;
12296;SDS011;6211;49.124;9.152;2023-06-14T04:34:03;5.43;;;3.50;;
12296;SDS011;6211;49.124;9.152;2023-06-14T04:36:31;3.78;;;3.20;;
12296;SDS011;6211;49.124;9.152;2023-06-14T04:38:59;4.30;;;3.78;;
12296;SDS011;6211;49.124;9.152;2023-06-14T04:41:28;4.13;;;3.45;;
12296;SDS011;6211;49.124;9.152;2023-06-14T04:43:56;4.15;;;3.38;;
12296;SDS011;6211;49.124;9.152;2023-06-14T04:46:23;6.38;;;3.72;;
12296;SDS011;6211;49.124;9.152;2023-06-14T04:48:53;4.32;;;3.50;;
12296;SDS011;6211;49.124;9.152;2023-06-14T04:51:23;5.32;;;3.83;;
12296;SDS011;6211;49.124;9.152;2023-06-14T04:53:54;3.10;;;2.80;;
12296;SDS011;6211;49.124;9.152;2023-06-14T04:56:23;4.55;;;3.33;;
12296;SDS011;6211;49.124;9.152;2023-06-14T04:58:51;4.05;;;3.60;;
12296;SDS011;6211;49.124;9.152;2023-06-14T05:01:18;5.07;;;3.38;;
12296;SDS011;6211;49.124;9.152;2023-06-14T05:03:46;4.05;;;3.35;;
12296;SDS011;6211;49.124;9.152;2023-06-14T05:06:14;4.28;;;3.40;;
12296;SDS011;6211;49.124;9.152;2023-06-14T05:08:43;4.43;;;3.75;;
12296;SDS011;6211;49.124;9.152;2023-06-14T05:11:10;4.45;;;3.75;;
12296;SDS011;6211;49.124;9.152;2023-06-14T05:13:38;3.30;;;3.00;;
12296;SDS011;6211;49.124;9.152;2023-06-14T05:16:06;3.63;;;2.88;;
12296;SDS011;6211;49.124;9.152;2023-06-14T05:18:33;3.50;;;3.20;;
12296;SDS011;6211;49.124;9.152;2023-06-14T05:21:00;3.83;;;3.20;;
12296;SDS011;6211;49.124;9.152;2023-06-14T05:23:28;3.00;;;2.70;;
12296;SDS011;6211;49.124;9.152;2023-06-14T05:25:57;4.05;;;3.30;;
12296;SDS011;6211;49.124;9.152;2023-06-14T05:28:24;3.92;;;2.90;;
12296;SDS011;6211;49.124;9.152;2023-06-14T05:30:51;4.95;;;3.75;;
12296;SDS011;6211;49.124;9.152;2023-06-14T05:33:19;3.55;;;3.15;;
12296;SDS011;6211;49.124;9.152;2023-06-14T05:35:46;3.10;;;2.80;;
12296;SDS011;6211;49.124;9.152;2023-06-14T05:38:13;3.95;;;3.55;;
12296;SDS011;6211;49.124;9.152;2023-06-14T05:40:40;3.40;;;3.00;;
12296;SDS011;6211;49.124;9.152;2023-06-14T05:43:08;4.50;;;2.83;;
12296;SDS011;6211;49.124;9.152;2023-06-14T05:45:36;3.72;;;3.13;;
12296;SDS011;6211;49.124;9.152;2023-06-14T05:48:03;3.08;;;2.75;;
12296;SDS011;6211;49.124;9.152;2023-06-14T05:50:30;3.70;;;3.40;;
12296;SDS011;6211;49.124;9.152;2023-06-14T05:52:57;5.00;;;3.20;;
12296;SDS011;6211;49.124;9.152;2023-06-14T05:55:25;3.38;;;3.00;;
12296;SDS011;6211;49.124;9.152;2023-06-14T05:57:52;5.18;;;3.13;;
12296;SDS011;6211;49.124;9.152;2023-06-14T06:00:21;5.55;;;3.70;;
12296;SDS011;6211;49.124;9.152;2023-06-14T06:02:48;4.45;;;3.20;;
12296;SDS011;6211;49.124;9.152;2023-06-14T06:05:15;3.50;;;3.20;;
12296;SDS011;6211;49.124;9.152;2023-06-14T06:07:42;4.53;;;3.40;;
12296;SDS011;6211;49.124;9.152;2023-06-14T06:10:10;5.63;;;2.97;;
12296;SDS011;6211;49.124;9.152;2023-06-14T06:12:37;3.67;;;3.28;;
12296;SDS011;6211;49.124;9.152;2023-06-14T06:15:05;3.92;;;3.10;;
12296;SDS011;6211;49.124;9.152;2023-06-14T06:17:34;4.57;;;2.90;;
12296;SDS011;6211;49.124;9.152;2023-06-14T06:20:01;7.53;;;3.33;;
12296;SDS011;6211;49.124;9.152;2023-06-14T06:22:28;4.28;;;3.15;;
12296;SDS011;6211;49.124;9.152;2023-06-14T06:24:55;3.65;;;3.13;;
12296;SDS011;6211;49.124;9.152;2023-06-14T06:27:22;4.32;;;3.20;;
12296;SDS011;6211;49.124;9.152;2023-06-14T06:29:49;3.60;;;2.83;;
12296;SDS011;6211;49.124;9.152;2023-06-14T06:32:16;5.20;;;3.38;;
12296;SDS011;6211;49.124;9.152;2023-06-14T06:34:45;3.35;;;2.97;;
12296;SDS011;6211;49.124;9.152;2023-06-14T06:37:12;3.47;;;3.15;;
12296;SDS011;6211;49.124;9.152;2023-06-14T06:39:40;3.53;;;2.85;;
12296;SDS011;6211;49.124;9.152;2023-06-14T06:42:07;2.90;;;2.70;;
12296;SDS011;6211;49.124;9.152;2023-06-14T06:44:34;2.80;;;2.60;;
12296;SDS011;6211;49.124;9.152;2023-06-14T06:47:01;3.88;;;3.45;;
12296;SDS011;6211;49.124;9.152;2023-06-14T06:49:28;3.75;;;2.90;;
12296;SDS011;6211;49.124;9.152;2023-06-14T06:52:00;3.17;;;2.88;;
12296;SDS011;6211;49.124;9.152;2023-06-14T06:54:28;3.88;;;3.20;;
12296;SDS011;6211;49.124;9.152;2023-06-14T06:56:55;3.70;;;2.60;;
12296;SDS011;6211;49.124;9.152;2023-06-14T06:59:22;4.13;;;2.75;;
12296;SDS011;6211;49.124;9.152;2023-06-14T07:01:49;3.67;;;2.92;;
12296;SDS011;6211;49.124;9.152;2023-06-14T07:04:16;3.60;;;3.30;;
12296;SDS011;6211;49.124;9.152;2023-06-14T07:06:43;4.90;;;2.97;;
12296;SDS011;6211;49.124;9.152;2023-06-14T07:09:13;3.38;;;3.08;;
12296;SDS011;6211;49.124;9.152;2023-06-14T07:11:41;5.18;;;3.35;;
12296;SDS011;6211;49.124;9.152;2023-06-14T07:14:08;3.42;;;2.83;;
12296;SDS011;6211;49.124;9.152;2023-06-14T07:16:35;2.83;;;2.50;;
12296;SDS011;6211;49.124;9.152;2023-06-14T07:19:02;3.60;;;2.70;;
12296;SDS011;6211;49.124;9.152;2023-06-14T07:21:30;3.10;;;2.80;;
12296;SDS011;6211;49.124;9.152;2023-06-14T07:23:57;5.13;;;3.10;;
12296;SDS011;6211;49.124;9.152;2023-06-14T07:26:25;3.67;;;3.00;;
12296;SDS011;6211;49.124;9.152;2023-06-14T07:28:52;3.40;;;3.10;;
12296;SDS011;6211;49.124;9.152;2023-06-14T07:31:19;4.55;;;3.15;;
12296;SDS011;6211;49.124;9.152;2023-06-14T07:33:47;3.65;;;2.90;;
12296;SDS011;6211;49.124;9.152;2023-06-14T07:36:14;3.15;;;2.85;;
12296;SDS011;6211;49.124;9.152;2023-06-14T07:38:42;6.88;;;3.35;;
12296;SDS011;6211;49.124;9.152;2023-06-14T07:41:10;4.03;;;2.40;;
12296;SDS011;6211;49.124;9.152;2023-06-14T07:43:38;3.50;;;3.20;;
12296;SDS011;6211;49.124;9.152;2023-06-14T07:46:05;3.72;;;2.95;;
12296;SDS011;6211;49.124;9.152;2023-06-14T07:48:34;5.18;;;2.88;;
12296;SDS011;6211;49.124;9.152;2023-06-14T07:51:01;3.90;;;2.92;;
12296;SDS011;6211;49.124;9.152;2023-06-14T07:53:28;3.40;;;3.10;;
12296;SDS011;6211;49.124;9.152;2023-06-14T07:55:56;3.20;;;2.78;;
12296;SDS011;6211;49.124;9.152;2023-06-14T07:58:23;4.53;;;3.00;;
12296;SDS011;6211;49.124;9.152;2023-06-14T08:00:52;2.95;;;2.65;;
12296;SDS011;6211;49.124;9.152;2023-06-14T08:03:19;3.30;;;3.00;;
12296;SDS011;6211;49.124;9.152;2023-06-14T08:05:47;4.60;;;3.17;;
12296;SDS011;6211;49.124;9.152;2023-06-14T08:08:14;3.60;;;2.72;;
12296;SDS011;6211;49.124;9.152;2023-06-14T08:10:41;3.90;;;2.42;;
12296;SDS011;6211;49.124;9.152;2023-06-14T08:13:09;3.22;;;2.90;;
12296;SDS011;6211;49.124;9.152;2023-06-14T08:15:36;2.83;;;2.60;;
12296;SDS011;6211;49.124;9.152;2023-06-14T08:18:04;3.78;;;2.75;;
12296;SDS011;6211;49.124;9.152;2023-06-14T08:20:31;3.45;;;2.83;;
12296;SDS011;6211;49.124;9.152;2023-06-14T08:23:00;3.72;;;2.53;;
12296;SDS011;6211;49.124;9.152;2023-06-14T08:25:27;3.17;;;2.63;;
12296;SDS011;6211;49.124;9.152;2023-06-14T08:27:54;3.40;;;2.60;;
12296;SDS011;6211;49.124;9.152;2023-06-14T08:30:21;4.15;;;2.88;;
12296;SDS011;6211;49.124;9.152;2023-06-14T08:32:48;4.72;;;2.95;;
12296;SDS011;6211;49.124;9.152;2023-06-14T08:35:18;2.97;;;2.72;;
12296;SDS011;6211;49.124;9.152;2023-06-14T08:37:45;4.18;;;2.75;;
12296;SDS011;6211;49.124;9.152;2023-06-14T08:40:18;3.05;;;2.40;;
12296;SDS011;6211;49.124;9.152;2023-06-14T08:42:47;2.95;;;2.65;;
12296;SDS011;6211;49.124;9.152;2023-06-14T08:45:14;2.42;;;2.22;;
12296;SDS011;6211;49.124;9.152;2023-06-14T08:47:42;3.40;;;2.92;;
12296;SDS011;6211;49.124;9.152;2023-06-14T08:50:10;2.85;;;2.55;;
12296;SDS011;6211;49.124;9.152;2023-06-14T08:52:42;3.28;;;2.97;;
12296;SDS011;6211;49.124;9.152;2023-06-14T08:55:14;3.53;;;2.60;;
12296;SDS011;6211;49.124;9.152;2023-06-14T08:57:45;3.15;;;2.58;;
12296;SDS011;6211;49.124;9.152;2023-06-14T09:00:14;3.25;;;2.65;;
12296;SDS011;6211;49.124;9.152;2023-06-14T09:02:42;5.20;;;3.20;;
12296;SDS011;6211;49.124;9.152;2023-06-14T09:05:10;2.95;;;2.25;;
12296;SDS011;6211;49.124;9.152;2023-06-14T09:07:38;4.82;;;2.70;;
12296;SDS011;6211;49.124;9.152;2023-06-14T09:10:08;3.08;;;2.70;;
12296;SDS011;6211;49.124;9.152;2023-06-14T09:12:36;2.75;;;2.38;;
12296;SDS011;6211;49.124;9.152;2023-06-14T09:15:04;3.35;;;2.90;;
12296;SDS011;6211;49.124;9.152;2023-06-14T09:17:33;3.00;;;2.70;;
12296;SDS011;6211;49.124;9.152;2023-06-14T09:20:01;3.53;;;2.60;;
12296;SDS011;6211;49.124;9.152;2023-06-14T09:22:31;3.60;;;2.80;;
12296;SDS011;6211;49.124;9.152;2023-06-14T09:24:58;4.25;;;2.70;;
12296;SDS011;6211;49.124;9.152;2023-06-14T09:27:26;2.85;;;2.53;;
12296;SDS011;6211;49.124;9.152;2023-06-14T09:29:54;2.65;;;2.40;;
12296;SDS011;6211;49.124;9.152;2023-06-14T09:32:21;2.88;;;2.65;;
12296;SDS011;6211;49.124;9.152;2023-06-14T09:34:48;3.70;;;3.10;;
12296;SDS011;6211;49.124;9.152;2023-06-14T09:37:25;2.78;;;2.50;;
12296;SDS011;6211;49.124;9.152;2023-06-14T09:39:53;2.65;;;2.45;;
12296;SDS011;6211;49.124;9.152;2023-06-14T09:42:20;2.65;;;2.45;;
12296;SDS011;6211;49.124;9.152;2023-06-14T09:44:52;2.90;;;2.70;;
12296;SDS011;6211;49.124;9.152;2023-06-14T09:47:20;5.00;;;2.80;;
12296;SDS011;6211;49.124;9.152;2023-06-14T09:49:47;2.60;;;2.40;;
12296;SDS011;6211;49.124;9.152;2023-06-14T09:52:15;2.70;;;2.50;;
12296;SDS011;6211;49.124;9.152;2023-06-14T09:54:42;5.65;;;2.67;;
12296;SDS011;6211;49.124;9.152;2023-06-14T09:57:11;4.88;;;2.90;;
12296;SDS011;6211;49.124;9.152;2023-06-14T09:59:40;3.03;;;2.30;;
12296;SDS011;6211;49.124;9.152;2023-06-14T10:02:11;3.00;;;2.75;;
12296;SDS011;6211;49.124;9.152;2023-06-14T10:04:39;4.20;;;2.75;;
12296;SDS011;6211;49.124;9.152;2023-06-14T10:07:11;2.80;;;2.53;;
12296;SDS011;6211;49.124;9.152;2023-06-14T10:09:38;2.95;;;2.70;;
12296;SDS011;6211;49.124;9.152;2023-06-14T10:12:09;2.30;;;2.05;;
12296;SDS011;6211;49.124;9.152;2023-06-14T10:14:40;2.53;;;2.10;;
12296;SDS011;6211;49.124;9.152;2023-06-14T10:17:08;3.03;;;2.40;;
12296;SDS011;6211;49.124;9.152;2023-06-14T10:19:40;5.60;;;2.53;;
12296;SDS011;6211;49.124;9.152;2023-06-14T10:22:10;1.95;;;1.85;;
12296;SDS011;6211;49.124;9.152;2023-06-14T10:24:40;2.50;;;2.28;;
12296;SDS011;6211;49.124;9.152;2023-06-14T10:27:08;3.83;;;2.30;;
12296;SDS011;6211;49.124;9.152;2023-06-14T10:29:38;3.08;;;2.40;;
12296;SDS011;6211;49.124;9.152;2023-06-14T10:32:27;2.50;;;2.30;;
12296;SDS011;6211;49.124;9.152;2023-06-14T10:34:54;2.65;;;2.00;;
12296;SDS011;6211;49.124;9.152;2023-06-14T10:37:22;2.35;;;2.10;;
12296;SDS011;6211;49.124;9.152;2023-06-14T10:39:49;2.35;;;2.17;;
12296;SDS011;6211;49.124;9.152;2023-06-14T10:42:16;3.08;;;2.45;;
12296;SDS011;6211;49.124;9.152;2023-06-14T10:44:45;2.05;;;1.90;;
12296;SDS011;6211;49.124;9.152;2023-06-14T10:47:23;2.00;;;1.90;;
12296;SDS011;6211;49.124;9.152;2023-06-14T10:49:52;3.40;;;2.17;;
12296;SDS011;6211;49.124;9.152;2023-06-14T10:52:24;2.75;;;2.28;;
12296;SDS011;6211;49.124;9.152;2023-06-14T10:57:40;2.42;;;2.20;;
12296;SDS011;6211;49.124;9.152;2023-06-14T11:00:07;3.95;;;2.17;;
12296;SDS011;6211;49.124;9.152;2023-06-14T11:05:26;2.53;;;2.33;;
12296;SDS011;6211;49.124;9.152;2023-06-14T11:08:07;2.28;;;2.10;;
12296;SDS011;6211;49.124;9.152;2023-06-14T11:10:38;2.50;;;2.13;;
12296;SDS011;6211;49.124;9.152;2023-06-14T11:13:06;2.22;;;2.03;;
12296;SDS011;6211;49.124;9.152;2023-06-14T11:15:34;2.42;;;2.00;;
12296;SDS011;6211;49.124;9.152;2023-06-14T11:18:02;2.30;;;2.10;;
12296;SDS011;6211;49.124;9.152;2023-06-14T11:20:32;2.47;;;1.98;;
12296;SDS011;6211;49.124;9.152;2023-06-14T11:22:59;2.97;;;2.22;;
12296;SDS011;6211;49.124;9.152;2023-06-14T11:25:26;2.28;;;2.13;;
12296;SDS011;6211;49.124;9.152;2023-06-14T11:27:54;2.33;;;2.13;;
12296;SDS011;6211;49.124;9.152;2023-06-14T11:30:21;2.30;;;2.10;;
12296;SDS011;6211;49.124;9.152;2023-06-14T11:32:50;2.28;;;2.08;;
12296;SDS011;6211;49.124;9.152;2023-06-14T11:35:18;2.30;;;2.10;;
12296;SDS011;6211;49.124;9.152;2023-06-14T11:37:46;3.70;;;2.45;;
12296;SDS011;6211;49.124;9.152;2023-06-14T11:40:14;2.35;;;2.15;;
12296;SDS011;6211;49.124;9.152;2023-06-14T11:42:41;2.58;;;2.00;;
12296;SDS011;6211;49.124;9.152;2023-06-14T11:45:09;2.22;;;1.95;;
12296;SDS011;6211;49.124;9.152;2023-06-14T11:47:37;2.15;;;1.95;;
12296;SDS011;6211;49.124;9.152;2023-06-14T11:50:05;2.50;;;2.30;;
12296;SDS011;6211;49.124;9.152;2023-06-14T11:52:33;3.92;;;2.83;;
12296;SDS011;6211;49.124;9.152;2023-06-14T11:55:02;2.28;;;2.08;;
12296;SDS011;6211;49.124;9.152;2023-06-14T11:57:30;2.30;;;2.10;;
12296;SDS011;6211;49.124;9.152;2023-06-14T11:59:57;2.22;;;2.03;;
12296;SDS011;6211;49.124;9.152;2023-06-14T12:02:24;2.33;;;2.03;;
12296;SDS011;6211;49.124;9.152;2023-06-14T12:04:54;2.83;;;1.98;;
12296;SDS011;6211;49.124;9.152;2023-06-14T12:07:22;2.42;;;2.05;;
12296;SDS011;6211;49.124;9.152;2023-06-14T12:10:06;2.08;;;1.95;;
12296;SDS011;6211;49.124;9.152;2023-06-14T12:12:35;2.45;;;2.25;;
12296;SDS011;6211;49.124;9.152;2023-06-14T12:15:02;2.42;;;2.22;;
12296;SDS011;6211;49.124;9.152;2023-06-14T12:17:31;2.50;;;2.30;;
12296;SDS011;6211;49.124;9.152;2023-06-14T12:19:59;2.72;;;2.20;;
12296;SDS011;6211;49.124;9.152;2023-06-14T12:22:26;2.10;;;2.00;;
12296;SDS011;6211;49.124;9.152;2023-06-14T12:24:55;2.20;;;2.08;;
12296;SDS011;6211;49.124;9.152;2023-06-14T12:27:24;2.13;;;2.03;;
12296;SDS011;6211;49.124;9.152;2023-06-14T12:29:58;2.30;;;2.10;;
12296;SDS011;6211;49.124;9.152;2023-06-14T12:32:26;2.60;;;2.40;;
12296;SDS011;6211;49.124;9.152;2023-06-14T12:34:53;2.75;;;2.55;;
12296;SDS011;6211;49.124;9.152;2023-06-14T12:37:20;2.25;;;2.05;;
12296;SDS011;6211;49.124;9.152;2023-06-14T12:39:47;3.05;;;2.22;;
12296;SDS011;6211;49.124;9.152;2023-06-14T12:42:15;2.35;;;2.15;;
12296;SDS011;6211;49.124;9.152;2023-06-14T12:44:44;2.33;;;2.13;;
12296;SDS011;6211;49.124;9.152;2023-06-14T12:47:11;2.40;;;2.20;;
12296;SDS011;6211;49.124;9.152;2023-06-14T12:49:39;2.45;;;2.08;;
12296;SDS011;6211;49.124;9.152;2023-06-14T12:52:07;4.40;;;2.38;;
12296;SDS011;6211;49.124;9.152;2023-06-14T12:54:35;2.42;;;2.22;;
12296;SDS011;6211;49.124;9.152;2023-06-14T12:57:04;2.67;;;2.40;;
12296;SDS011;6211;49.124;9.152;2023-06-14T12:59:32;2.15;;;2.03;;
12296;SDS011;6211;49.124;9.152;2023-06-14T13:02:01;2.38;;;2.17;;
12296;SDS011;6211;49.124;9.152;2023-06-14T13:04:36;2.95;;;2.17;;
12296;SDS011;6211;49.124;9.152;2023-06-14T13:07:04;2.47;;;2.13;;
12296;SDS011;6211;49.124;9.152;2023-06-14T13:09:31;2.92;;;2.20;;
12296;SDS011;6211;49.124;9.152;2023-06-14T13:11:58;3.38;;;2.20;;
12296;SDS011;6211;49.124;9.152;2023-06-14T13:14:26;2.40;;;2.20;;
12296;SDS011;6211;49.124;9.152;2023-06-14T13:16:53;3.00;;;2.22;;
12296;SDS011;6211;49.124;9.152;2023-06-14T13:19:22;2.55;;;2.35;;
12296;SDS011;6211;49.124;9.152;2023-06-14T13:21:50;2.60;;;2.38;;
12296;SDS011;6211;49.124;9.152;2023-06-14T13:24:17;2.75;;;2.45;;
12296;SDS011;6211;49.124;9.152;2023-06-14T13:26:44;2.40;;;2.20;;
12296;SDS011;6211;49.124;9.152;2023-06-14T13:29:11;2.25;;;2.05;;
12296;SDS011;6211;49.124;9.152;2023-06-14T13:31:38;2.40;;;2.20;;
12296;SDS011;6211;49.124;9.152;2023-06-14T13:34:05;2.67;;;2.47;;
12296;SDS011;6211;49.124;9.152;2023-06-14T13:36:34;2.58;;;2.40;;
12296;SDS011;6211;49.124;9.152;2023-06-14T13:39:01;2.55;;;2.35;;
12296;SDS011;6211;49.124;9.152;2023-06-14T13:41:29;2.10;;;1.92;;
12296;SDS011;6211;49.124;9.152;2023-06-14T13:43:58;2.55;;;2.35;;
12296;SDS011;6211;49.124;9.152;2023-06-14T13:46:25;2.78;;;2.58;;
12296;SDS011;6211;49.124;9.152;2023-06-14T13:48:53;2.20;;;2.00;;
12296;SDS011;6211;49.124;9.152;2023-06-14T13:51:20;2.47;;;2.28;;
12296;SDS011;6211;49.124;9.152;2023-06-14T13:53:49;2.78;;;2.30;;
12296;SDS011;6211;49.124;9.152;2023-06-14T13:56:16;2.42;;;2.22;;
12296;SDS011;6211;49.124;9.152;2023-06-14T13:58:44;2.97;;;2.33;;
12296;SDS011;6211;49.124;9.152;2023-06-14T14:01:11;2.25;;;2.13;;
12296;SDS011;6211;49.124;9.152;2023-06-14T14:03:38;2.33;;;2.13;;
12296;SDS011;6211;49.124;9.152;2023-06-14T14:06:05;2.30;;;2.10;;
12296;SDS011;6211;49.124;9.152;2023-06-14T14:08:33;3.20;;;2.15;;
12296;SDS011;6211;49.124;9.152;2023-06-14T14:11:01;2.20;;;2.00;;
12296;SDS011;6211;49.124;9.152;2023-06-14T14:13:29;2.67;;;2.13;;
12296;SDS011;6211;49.124;9.152;2023-06-14T14:15:56;2.20;;;1.98;;
12296;SDS011;6211;49.124;9.152;2023-06-14T14:18:24;2.28;;;2.08;;
12296;SDS011;6211;49.124;9.152;2023-06-14T14:20:51;2.05;;;1.95;;
12296;SDS011;6211;49.124;9.152;2023-06-14T14:23:18;3.30;;;2.15;;
12296;SDS011;6211;49.124;9.152;2023-06-14T14:25:46;2.65;;;2.30;;
12296;SDS011;6211;49.124;9.152;2023-06-14T14:28:14;2.33;;;2.13;;
12296;SDS011;6211;49.124;9.152;2023-06-14T14:30:44;2.53;;;2.10;;
12296;SDS011;6211;49.124;9.152;2023-06-14T14:33:12;2.30;;;2.10;;
12296;SDS011;6211;49.124;9.152;2023-06-14T14:35:40;2.42;;;2.22;;
12296;SDS011;6211;49.124;9.152;2023-06-14T14:38:08;2.90;;;2.40;;
12296;SDS011;6211;49.124;9.152;2023-06-14T14:40:35;2.53;;;2.33;;
12296;SDS011;6211;49.124;9.152;2023-06-14T14:43:02;2.13;;;1.92;;
12296;SDS011;6211;49.124;9.152;2023-06-14T14:45:31;2.28;;;1.80;;
12296;SDS011;6211;49.124;9.152;2023-06-14T14:48:00;2.13;;;1.98;;
12296;SDS011;6211;49.124;9.152;2023-06-14T14:50:27;2.28;;;2.08;;
12296;SDS011;6211;49.124;9.152;2023-06-14T14:52:54;2.50;;;2.30;;
12296;SDS011;6211;49.124;9.152;2023-06-14T14:55:22;2.20;;;2.00;;
12296;SDS011;6211;49.124;9.152;2023-06-14T14:57:49;2.53;;;2.28;;
12296;SDS011;6211;49.124;9.152;2023-06-14T15:00:17;2.72;;;2.50;;
12296;SDS011;6211;49.124;9.152;2023-06-14T15:02:45;2.38;;;2.10;;
12296;SDS011;6211;49.124;9.152;2023-06-14T15:05:12;2.78;;;2.13;;
12296;SDS011;6211;49.124;9.152;2023-06-14T15:07:39;2.17;;;1.98;;
12296;SDS011;6211;49.124;9.152;2023-06-14T15:10:08;2.40;;;2.20;;